createdAt,value
2019-03-28T00:00:59.336Z,22.20
2019-03-28T00:03:27.145Z,21.50
2019-03-28T00:05:55.056Z,23.40
2019-03-28T00:08:22.720Z,24.83
2019-03-28T00:10:50.467Z,24.97
2019-03-28T00:13:18.416Z,23.23
2019-03-28T00:15:46.157Z,21.60
2019-03-28T00:18:13.921Z,27.63
2019-03-28T00:20:41.684Z,22.63
2019-03-28T00:23:44.205Z,25.77
2019-03-28T00:26:12.040Z,22.30
2019-03-28T00:28:39.804Z,24.33
2019-03-28T00:31:07.702Z,22.87
2019-03-28T00:33:35.465Z,25.13
2019-03-28T00:36:03.312Z,21.67
2019-03-28T00:38:31.060Z,25.00
2019-03-28T00:40:59.016Z,23.23
2019-03-28T00:43:27.066Z,24.00
2019-03-28T00:45:54.815Z,22.10
2019-03-28T00:48:22.568Z,22.17
2019-03-28T00:50:50.328Z,22.07
2019-03-28T00:53:18.084Z,24.30
2019-03-28T00:55:45.812Z,25.53
2019-03-28T00:58:13.571Z,26.87
2019-03-28T01:00:41.317Z,26.00
2019-03-28T01:03:09.048Z,30.60
2019-03-28T01:05:36.871Z,23.97
2019-03-28T01:08:04.757Z,26.77
2019-03-28T01:10:32.484Z,26.47
2019-03-28T01:13:00.226Z,24.73
2019-03-28T01:15:27.980Z,26.43
2019-03-28T01:17:55.721Z,25.53
2019-03-28T01:20:23.488Z,26.50
2019-03-28T01:22:51.221Z,22.93
2019-03-28T01:25:18.964Z,19.90
2019-03-28T01:27:46.714Z,27.73
2019-03-28T01:30:14.688Z,24.70
2019-03-28T01:32:42.500Z,22.70
2019-03-28T01:35:11.161Z,23.37
2019-03-28T01:37:38.902Z,24.43
2019-03-28T01:40:07.282Z,26.07
2019-03-28T01:42:35.034Z,30.50
2019-03-28T01:45:03.264Z,23.97
2019-03-28T01:47:31.044Z,24.90
2019-03-28T01:49:58.796Z,25.53
2019-03-28T01:52:26.568Z,24.63
2019-03-28T01:54:54.763Z,26.67
2019-03-28T01:57:23.080Z,29.67
2019-03-28T01:59:50.840Z,29.60
2019-03-28T02:02:18.601Z,29.53
2019-03-28T02:04:46.329Z,24.70
2019-03-28T02:07:14.184Z,25.90
2019-03-28T02:09:41.924Z,38.17
2019-03-28T02:12:09.680Z,32.10
2019-03-28T02:14:38.305Z,25.73
2019-03-28T02:17:06.168Z,33.80
2019-03-28T02:19:34.008Z,31.63
2019-03-28T02:22:01.765Z,24.30
2019-03-28T02:24:29.504Z,26.00
2019-03-28T02:26:57.265Z,26.80
2019-03-28T02:29:25.008Z,24.93
2019-03-28T02:31:52.762Z,32.53
2019-03-28T02:34:20.493Z,26.70
2019-03-28T02:36:49.156Z,28.50
2019-03-28T02:39:16.921Z,27.50
2019-03-28T02:41:44.769Z,26.40
2019-03-28T02:44:12.556Z,27.20
2019-03-28T02:46:40.291Z,30.90
2019-03-28T02:49:08.031Z,30.07
2019-03-28T02:51:35.881Z,32.67
2019-03-28T02:54:03.640Z,30.67
2019-03-28T02:56:31.504Z,29.53
2019-03-28T02:58:59.261Z,26.03
2019-03-28T03:01:30.089Z,31.93
2019-03-28T03:03:56.705Z,29.27
2019-03-28T03:06:24.762Z,24.43
2019-03-28T03:08:52.541Z,25.63
2019-03-28T03:11:20.301Z,25.63
2019-03-28T03:13:48.058Z,24.13
2019-03-28T03:16:15.788Z,29.30
2019-03-28T03:18:43.565Z,26.67
2019-03-28T03:21:11.389Z,24.67
2019-03-28T03:23:39.154Z,27.03
2019-03-28T03:26:06.917Z,26.30
2019-03-28T03:28:34.659Z,24.03
2019-03-28T03:31:02.395Z,21.90
2019-03-28T03:33:30.159Z,22.60
2019-03-28T03:35:58.009Z,20.87
2019-03-28T03:38:26.719Z,27.67
2019-03-28T03:40:54.891Z,27.47
2019-03-28T03:43:23.166Z,28.77
2019-03-28T03:45:51.265Z,21.97
2019-03-28T03:48:19.013Z,23.40
2019-03-28T03:50:46.761Z,25.17
2019-03-28T03:53:14.444Z,26.53
2019-03-28T03:55:42.293Z,26.23
2019-03-28T03:58:16.434Z,25.10
2019-03-28T04:00:39.782Z,25.53
2019-03-28T04:03:07.558Z,23.53
2019-03-28T04:05:35.380Z,29.30
2019-03-28T04:08:03.178Z,25.13
2019-03-28T04:10:31.032Z,22.57
2019-03-28T04:12:58.774Z,27.83
2019-03-28T04:15:26.567Z,25.97
2019-03-28T04:17:54.303Z,22.80
2019-03-28T04:20:22.038Z,29.43
2019-03-28T04:22:49.777Z,31.37
2019-03-28T04:25:17.624Z,30.27
2019-03-28T04:27:57.339Z,31.70
2019-03-28T04:30:25.052Z,26.87
2019-03-28T04:32:52.804Z,27.00
2019-03-28T04:35:20.566Z,28.10
2019-03-28T04:37:48.405Z,27.67
2019-03-28T04:40:17.084Z,24.73
2019-03-28T04:42:46.003Z,30.07
2019-03-28T04:45:13.950Z,27.07
2019-03-28T04:47:41.704Z,25.50
2019-03-28T04:50:10.328Z,29.43
2019-03-28T04:52:38.281Z,27.73
2019-03-28T04:55:06.648Z,33.00
2019-03-28T04:57:34.414Z,26.40
2019-03-28T05:00:02.523Z,20.57
2019-03-28T05:02:31.329Z,26.20
2019-03-28T05:04:59.485Z,23.63
2019-03-28T05:07:27.221Z,24.20
2019-03-28T05:09:54.860Z,22.73
2019-03-28T05:12:22.653Z,23.40
2019-03-28T05:14:50.380Z,34.70
2019-03-28T05:17:18.160Z,23.90
2019-03-28T05:19:46.020Z,23.87
2019-03-28T05:22:13.765Z,25.30
2019-03-28T05:24:41.513Z,22.67
2019-03-28T05:27:09.268Z,22.33
2019-03-28T05:29:36.988Z,23.23
2019-03-28T05:32:07.025Z,21.10
2019-03-28T05:34:34.780Z,24.23
2019-03-28T05:37:02.529Z,20.57
2019-03-28T05:39:30.348Z,26.80
2019-03-28T05:41:58.146Z,19.37
2019-03-28T05:44:25.880Z,26.60
2019-03-28T05:46:53.628Z,22.17
2019-03-28T05:49:21.446Z,23.60
2019-03-28T05:51:49.229Z,18.73
2019-03-28T05:54:17.000Z,21.73
2019-03-28T05:56:44.880Z,26.03
2019-03-28T05:59:12.604Z,24.20
2019-03-28T06:01:40.493Z,20.73
2019-03-28T06:04:08.432Z,19.67
2019-03-28T06:06:36.401Z,17.70
2019-03-28T06:09:06.349Z,16.77
2019-03-28T06:11:34.144Z,20.70
2019-03-28T06:14:01.956Z,18.40
2019-03-28T06:16:29.700Z,18.50
2019-03-28T06:18:57.465Z,21.97
2019-03-28T06:21:25.216Z,22.90
2019-03-28T06:23:53.101Z,18.33
2019-03-28T06:26:21.081Z,19.40
2019-03-28T06:28:48.824Z,16.00
2019-03-28T06:31:16.561Z,18.03
2019-03-28T06:33:44.299Z,19.63
2019-03-28T06:36:12.046Z,20.47
2019-03-28T06:38:39.784Z,20.20
2019-03-28T06:41:07.882Z,23.13
2019-03-28T06:43:36.536Z,16.43
2019-03-28T06:46:04.312Z,19.13
2019-03-28T06:48:32.065Z,19.93
2019-03-28T06:50:59.798Z,15.33
2019-03-28T06:53:27.552Z,15.10
2019-03-28T06:55:55.302Z,14.90
2019-03-28T06:58:23.063Z,14.70
2019-03-28T07:00:50.811Z,17.10
2019-03-28T07:03:18.560Z,14.07
2019-03-28T07:05:46.289Z,16.77
2019-03-28T07:08:14.090Z,20.63
2019-03-28T07:10:41.832Z,20.30
2019-03-28T07:13:10.350Z,19.43
2019-03-28T07:15:38.282Z,21.67
2019-03-28T07:18:06.033Z,18.57
2019-03-28T07:20:33.832Z,20.80
2019-03-28T07:23:01.573Z,16.30
2019-03-28T07:25:30.474Z,18.03
2019-03-28T07:27:58.337Z,20.90
2019-03-28T07:30:26.092Z,34.83
2019-03-28T07:32:54.008Z,11.57
2019-03-28T07:35:21.755Z,15.03
2019-03-28T07:37:49.640Z,14.67
2019-03-28T07:40:17.573Z,16.90
2019-03-28T07:42:45.324Z,16.37
2019-03-28T07:45:14.320Z,13.20
2019-03-28T07:47:42.119Z,15.40
2019-03-28T07:50:10.242Z,16.93
2019-03-28T07:52:38.131Z,17.00
2019-03-28T07:55:07.493Z,14.40
2019-03-28T07:57:35.361Z,17.17
2019-03-28T08:00:05.806Z,21.93
2019-03-28T08:02:33.545Z,15.70
2019-03-28T08:05:02.112Z,16.60
2019-03-28T08:07:30.185Z,17.13
2019-03-28T08:09:58.021Z,15.53
2019-03-28T08:12:25.769Z,19.90
2019-03-28T08:14:53.512Z,20.00
2019-03-28T08:17:21.289Z,23.17
2019-03-28T08:19:49.129Z,17.47
2019-03-28T08:22:16.893Z,15.77
2019-03-28T08:24:44.642Z,17.87
2019-03-28T08:27:12.381Z,12.87
2019-03-28T08:29:40.196Z,17.20
2019-03-28T08:32:13.652Z,17.70
2019-03-28T08:34:41.575Z,19.13
2019-03-28T08:37:09.328Z,19.33
2019-03-28T08:39:37.365Z,15.63
2019-03-28T08:42:05.110Z,19.17
2019-03-28T08:44:32.844Z,16.63
2019-03-28T08:47:00.650Z,17.33
2019-03-28T08:49:28.784Z,18.17
2019-03-28T08:51:56.545Z,17.47
2019-03-28T08:54:24.321Z,17.43
2019-03-28T08:56:52.056Z,15.47
2019-03-28T08:59:19.808Z,15.20
2019-03-28T09:04:33.607Z,20.07
2019-03-28T09:07:01.365Z,20.23
2019-03-28T09:09:29.113Z,12.17
2019-03-28T09:11:56.876Z,13.90
2019-03-28T09:14:24.626Z,19.07
2019-03-28T09:17:01.241Z,17.50
2019-03-28T09:22:15.073Z,15.00
2019-03-28T09:24:42.858Z,18.50
2019-03-28T09:27:10.700Z,19.30
2019-03-28T09:29:38.455Z,13.40
2019-03-28T09:32:06.209Z,15.60
2019-03-28T09:34:34.077Z,12.60
2019-03-28T09:37:01.814Z,19.33
2019-03-28T09:39:29.568Z,12.97
2019-03-28T09:41:57.494Z,14.53
2019-03-28T09:44:25.300Z,14.60
2019-03-28T09:46:53.056Z,13.23
2019-03-28T09:49:20.825Z,13.37
2019-03-28T09:51:48.578Z,18.13
2019-03-28T09:54:16.349Z,13.47
2019-03-28T09:56:44.088Z,12.20
2019-03-28T09:59:11.949Z,11.83
2019-03-28T10:01:39.688Z,14.53
2019-03-28T10:04:07.477Z,16.00
2019-03-28T10:06:35.241Z,17.90
2019-03-28T10:09:04.497Z,15.17
2019-03-28T10:11:32.235Z,18.20
2019-03-28T10:14:00.023Z,12.27
2019-03-28T10:16:27.947Z,14.20
2019-03-28T10:18:55.824Z,17.23
2019-03-28T10:21:23.668Z,14.97
2019-03-28T10:23:51.414Z,17.07
2019-03-28T10:26:19.158Z,21.53
2019-03-28T10:28:46.903Z,11.33
2019-03-28T10:31:16.654Z,14.60
2019-03-28T10:33:44.412Z,12.90
2019-03-28T10:36:12.198Z,18.03
2019-03-28T10:38:40.070Z,16.73
2019-03-28T10:41:07.827Z,13.50
2019-03-28T10:43:35.664Z,13.50
2019-03-28T10:46:03.445Z,10.77
2019-03-28T10:48:31.218Z,14.07
2019-03-28T10:50:59.889Z,12.43
2019-03-28T10:53:30.086Z,13.07
2019-03-28T10:55:57.615Z,19.90
2019-03-28T10:58:25.404Z,14.40
2019-03-28T11:00:54.732Z,11.87
2019-03-28T11:03:22.800Z,13.23
2019-03-28T11:06:02.835Z,24.13
2019-03-28T11:08:30.649Z,12.23
2019-03-28T11:10:58.629Z,9.07
2019-03-28T11:13:26.640Z,9.17
2019-03-28T11:15:54.481Z,13.10
2019-03-28T11:18:22.284Z,12.70
2019-03-28T11:20:50.168Z,12.40
2019-03-28T11:23:17.954Z,10.53
2019-03-28T11:25:45.745Z,12.83
2019-03-28T11:28:13.538Z,14.50
2019-03-28T11:30:41.380Z,11.73
2019-03-28T11:33:09.221Z,12.50
2019-03-28T11:35:36.970Z,12.37
2019-03-28T11:38:05.062Z,11.23
2019-03-28T11:40:32.921Z,11.80
2019-03-28T11:43:00.844Z,17.27
2019-03-28T11:45:28.709Z,13.77
2019-03-28T11:47:56.604Z,11.80
2019-03-28T11:50:24.612Z,12.13
2019-03-28T11:52:53.329Z,13.73
2019-03-28T11:55:21.169Z,19.80
2019-03-28T11:57:48.945Z,14.83
2019-03-28T12:00:18.303Z,12.30
2019-03-28T12:02:46.044Z,17.07
2019-03-28T12:05:14.074Z,14.00
2019-03-28T12:07:42.015Z,18.80
2019-03-28T12:10:12.056Z,14.53
2019-03-28T12:12:39.813Z,18.33
2019-03-28T12:15:08.656Z,12.40
2019-03-28T12:17:36.496Z,12.57
2019-03-28T12:20:05.168Z,12.40
2019-03-28T12:22:32.932Z,16.30
2019-03-28T12:25:01.053Z,11.27
2019-03-28T12:27:28.894Z,14.80
2019-03-28T12:29:56.640Z,17.47
2019-03-28T12:32:24.493Z,15.80
2019-03-28T12:34:52.156Z,9.53
2019-03-28T12:37:19.949Z,10.73
2019-03-28T12:39:48.161Z,12.73
2019-03-28T12:42:16.053Z,12.70
2019-03-28T12:44:56.366Z,8.20
2019-03-28T12:47:13.557Z,9.67
2019-03-28T12:49:41.349Z,13.40
2019-03-28T12:52:09.072Z,10.60
2019-03-28T12:54:36.833Z,9.80
2019-03-28T12:57:04.959Z,8.17
2019-03-28T12:59:33.745Z,12.73
2019-03-28T13:02:01.868Z,8.97
2019-03-28T13:04:29.629Z,10.67
2019-03-28T13:06:57.438Z,9.00
2019-03-28T13:09:25.293Z,10.33
2019-03-28T13:11:53.405Z,15.77
2019-03-28T13:14:21.560Z,9.03
2019-03-28T13:16:49.516Z,10.13
2019-03-28T13:19:18.113Z,13.20
2019-03-28T13:21:46.066Z,9.70
2019-03-28T13:24:14.972Z,7.10
2019-03-28T13:26:42.981Z,7.87
2019-03-28T13:29:11.249Z,7.00
2019-03-28T13:31:40.585Z,9.50
2019-03-28T13:34:08.408Z,9.23
2019-03-28T13:36:37.089Z,10.80
2019-03-28T13:39:06.581Z,11.30
2019-03-28T13:41:34.344Z,10.30
2019-03-28T13:44:02.081Z,9.10
2019-03-28T13:46:29.842Z,9.13
2019-03-28T13:48:57.609Z,8.87
2019-03-28T13:51:25.437Z,8.30
2019-03-28T13:53:54.136Z,6.57
2019-03-28T13:56:22.033Z,9.43
2019-03-28T13:58:49.771Z,8.33
2019-03-28T14:01:17.557Z,8.70
2019-03-28T14:03:45.465Z,9.47
2019-03-28T14:06:13.219Z,10.97
2019-03-28T14:08:40.985Z,9.63
2019-03-28T14:11:08.826Z,10.17
2019-03-28T14:13:36.571Z,9.10
2019-03-28T14:16:04.367Z,6.60
2019-03-28T14:18:32.283Z,9.33
2019-03-28T14:21:00.028Z,9.20
2019-03-28T14:23:27.902Z,7.40
2019-03-28T14:25:55.708Z,7.60
2019-03-28T14:28:23.726Z,6.10
2019-03-28T14:30:51.773Z,5.90
2019-03-28T14:33:19.680Z,6.10
2019-03-28T14:35:47.478Z,7.53
2019-03-28T14:38:16.212Z,7.17
2019-03-28T14:40:43.969Z,7.57
2019-03-28T14:43:11.735Z,10.67
2019-03-28T14:45:39.505Z,7.30
2019-03-28T14:48:08.296Z,8.53
2019-03-28T14:50:38.428Z,9.43
2019-03-28T14:53:06.231Z,7.10
2019-03-28T14:55:34.713Z,7.50
2019-03-28T14:58:03.876Z,8.17
2019-03-28T15:00:49.193Z,8.13
2019-03-28T15:03:25.668Z,10.83
2019-03-28T15:05:47.333Z,11.43
2019-03-28T15:08:15.101Z,5.77
2019-03-28T15:10:42.973Z,5.90
2019-03-28T15:13:10.751Z,9.70
2019-03-28T15:15:38.506Z,5.30
2019-03-28T15:18:06.277Z,6.70
2019-03-28T15:20:34.092Z,5.00
2019-03-28T15:23:02.077Z,10.63
2019-03-28T15:25:29.856Z,6.20
2019-03-28T15:27:57.738Z,8.00
2019-03-28T15:30:25.507Z,5.80
2019-03-28T15:32:53.272Z,8.87
2019-03-28T15:35:21.037Z,6.80
2019-03-28T15:37:48.825Z,7.40
2019-03-28T15:40:16.564Z,8.00
2019-03-28T15:42:44.512Z,8.27
2019-03-28T15:45:12.518Z,6.30
2019-03-28T15:47:40.252Z,6.60
2019-03-28T15:50:08.313Z,6.40
2019-03-28T15:52:36.077Z,6.67
2019-03-28T15:55:05.252Z,10.53
2019-03-28T15:57:33.944Z,8.37
2019-03-28T16:00:01.790Z,8.33
2019-03-28T16:02:29.524Z,21.77
2019-03-28T16:04:57.397Z,10.37
2019-03-28T16:07:25.286Z,13.13
2019-03-28T16:09:53.115Z,12.40
2019-03-28T16:12:20.978Z,10.97
2019-03-28T16:14:48.868Z,13.90
2019-03-28T16:17:16.593Z,11.23
2019-03-28T16:19:57.740Z,12.27
2019-03-28T16:22:25.648Z,9.83
2019-03-28T16:24:53.462Z,11.83
2019-03-28T16:27:21.245Z,10.50
2019-03-28T16:29:48.982Z,13.57
2019-03-28T16:32:16.645Z,13.47
2019-03-28T16:34:44.419Z,16.10
2019-03-28T16:37:12.188Z,17.90
2019-03-28T16:39:40.083Z,15.27
2019-03-28T16:42:07.847Z,26.03
2019-03-28T16:44:35.580Z,19.00
2019-03-28T16:47:03.344Z,20.13
2019-03-28T16:49:31.084Z,22.53
2019-03-28T16:51:58.863Z,23.00
2019-03-28T16:54:27.863Z,21.03
2019-03-28T16:56:55.836Z,21.57
2019-03-28T16:59:23.661Z,21.97
2019-03-28T17:01:51.393Z,20.50
2019-03-28T17:04:21.025Z,23.83
2019-03-28T17:06:49.068Z,23.27
2019-03-28T17:09:16.894Z,20.53
2019-03-28T17:11:44.677Z,16.07
2019-03-28T17:14:12.437Z,18.90
2019-03-28T17:16:40.281Z,23.13
2019-03-28T17:19:08.110Z,22.90
2019-03-28T17:21:35.949Z,23.10
2019-03-28T17:24:03.701Z,20.63
2019-03-28T17:26:31.464Z,22.53
2019-03-28T17:28:59.312Z,21.80
2019-03-28T17:31:27.265Z,21.80
2019-03-28T17:33:55.108Z,28.83
2019-03-28T17:36:22.896Z,26.63
2019-03-28T17:38:50.787Z,22.23
2019-03-28T17:41:18.684Z,26.47
2019-03-28T17:43:46.421Z,24.83
2019-03-28T17:46:14.260Z,24.27
2019-03-28T17:48:42.088Z,26.43
2019-03-28T17:51:09.930Z,29.73
2019-03-28T17:53:37.872Z,26.73
2019-03-28T17:56:05.780Z,27.77
2019-03-28T17:58:33.536Z,27.83
2019-03-28T18:01:01.289Z,28.33
2019-03-28T18:03:31.433Z,36.03
2019-03-28T18:05:58.882Z,36.97
2019-03-28T18:08:26.760Z,28.47
2019-03-28T18:10:54.499Z,33.40
2019-03-28T18:13:22.244Z,30.43
2019-03-28T18:15:50.029Z,30.50
2019-03-28T18:18:17.793Z,31.30
2019-03-28T18:20:45.525Z,30.97
2019-03-28T18:23:13.279Z,31.53
2019-03-28T18:25:41.017Z,31.13
2019-03-28T18:28:09.666Z,35.43
2019-03-28T18:30:37.617Z,34.83
2019-03-28T18:33:05.479Z,36.03
2019-03-28T18:35:33.228Z,36.10
2019-03-28T18:38:00.982Z,38.93
2019-03-28T18:40:28.740Z,46.83
2019-03-28T18:42:56.469Z,40.30
2019-03-28T18:45:24.334Z,55.67
2019-03-28T18:47:52.377Z,57.70
2019-03-28T18:50:20.212Z,37.50
2019-03-28T18:52:48.060Z,33.50
2019-03-28T18:55:15.929Z,31.07
2019-03-28T18:57:43.681Z,37.50
2019-03-28T19:00:12.166Z,39.10
2019-03-28T19:02:39.936Z,33.50
2019-03-28T19:05:19.154Z,42.70
2019-03-28T19:07:37.738Z,32.97
2019-03-28T19:10:06.905Z,35.53
2019-03-28T19:12:34.654Z,40.13
2019-03-28T19:15:03.501Z,38.10
2019-03-28T19:17:31.362Z,40.10
2019-03-28T19:19:59.644Z,36.30
2019-03-28T19:22:27.588Z,35.37
2019-03-28T19:24:55.348Z,44.30
2019-03-28T19:27:23.084Z,37.03
2019-03-28T19:37:32.909Z,47.43
2019-03-28T19:40:00.785Z,119.93
2019-03-28T19:42:29.095Z,93.93
2019-03-28T19:44:56.952Z,96.50
2019-03-28T19:47:24.761Z,71.30
2019-03-28T19:49:52.658Z,67.87
2019-03-28T19:52:20.578Z,56.00
2019-03-28T19:54:48.454Z,54.93
2019-03-28T19:57:16.218Z,48.90
2019-03-28T19:59:43.965Z,42.60
2019-03-28T20:02:14.222Z,44.93
2019-03-28T20:04:41.553Z,44.20
2019-03-28T20:07:20.823Z,47.60
2019-03-28T20:09:39.085Z,40.80
2019-03-28T20:12:06.877Z,42.50
2019-03-28T20:14:34.740Z,42.90
2019-03-28T20:17:02.473Z,43.50
2019-03-28T20:19:30.212Z,44.57
2019-03-28T20:21:59.538Z,53.37
2019-03-28T20:24:27.689Z,46.87
2019-03-28T20:26:56.113Z,49.03
2019-03-28T20:29:24.089Z,43.37
2019-03-28T20:31:51.835Z,44.97
2019-03-28T20:34:19.576Z,44.07
2019-03-28T20:36:47.417Z,56.70
2019-03-28T20:39:15.180Z,51.83
2019-03-28T20:41:43.055Z,45.87
2019-03-28T20:44:11.799Z,44.90
2019-03-28T20:46:40.848Z,45.60
2019-03-28T20:49:09.620Z,46.50
2019-03-28T20:51:37.716Z,43.00
2019-03-28T20:54:07.752Z,43.30
2019-03-28T20:56:35.103Z,47.33
2019-03-28T20:59:02.945Z,48.27
2019-03-28T21:01:30.973Z,43.40
2019-03-28T21:03:58.916Z,46.43
2019-03-28T21:06:26.797Z,41.10
2019-03-28T21:08:54.568Z,47.97
2019-03-28T21:11:23.017Z,43.17
2019-03-28T21:13:50.817Z,43.00
2019-03-28T21:16:18.546Z,36.00
2019-03-28T21:18:46.298Z,42.80
2019-03-28T21:21:14.064Z,42.60
2019-03-28T21:23:41.833Z,49.20
2019-03-28T21:26:09.598Z,43.63
2019-03-28T21:28:46.999Z,47.17
2019-03-28T21:31:06.998Z,49.70
2019-03-28T21:33:34.746Z,47.80
2019-03-28T21:36:02.497Z,58.33
2019-03-28T21:38:30.292Z,49.40
2019-03-28T21:40:59.523Z,46.97
2019-03-28T21:43:27.757Z,56.00
2019-03-28T21:45:55.727Z,51.13
2019-03-28T21:48:23.642Z,50.20
2019-03-28T21:50:51.527Z,46.03
2019-03-28T21:53:20.150Z,56.77
2019-03-28T21:55:54.884Z,47.83
2019-03-28T21:58:19.132Z,55.10
2019-03-28T22:00:46.947Z,52.40
2019-03-28T22:03:15.047Z,50.73
2019-03-28T22:05:43.086Z,52.10
2019-03-28T22:08:10.773Z,50.80
2019-03-28T22:10:39.053Z,48.50
2019-03-28T22:13:07.060Z,44.17
2019-03-28T22:15:34.986Z,43.30
2019-03-28T22:18:02.954Z,44.83
2019-03-28T22:20:30.688Z,43.83
2019-03-28T22:22:58.457Z,40.87
2019-03-28T22:25:26.214Z,48.27
2019-03-28T22:27:54.053Z,46.93
2019-03-28T22:30:21.796Z,47.20
2019-03-28T22:32:50.065Z,55.10
2019-03-28T22:35:18.238Z,55.97
2019-03-28T22:37:45.989Z,53.67
2019-03-28T22:40:13.928Z,52.30
2019-03-28T22:42:41.693Z,53.47
2019-03-28T22:45:11.253Z,46.00
2019-03-28T22:47:38.976Z,50.90
2019-03-28T22:50:08.151Z,48.67
2019-03-28T22:52:35.868Z,43.77
2019-03-28T22:55:04.607Z,40.27
2019-03-28T22:57:32.351Z,42.33
2019-03-28T23:00:00.161Z,45.00
2019-03-28T23:02:29.004Z,47.00
2019-03-28T23:04:57.035Z,46.00
2019-03-28T23:07:24.765Z,43.40
2019-03-28T23:09:52.536Z,43.03
2019-03-28T23:12:20.293Z,47.73
2019-03-28T23:14:48.031Z,46.50
2019-03-28T23:17:15.778Z,48.77
2019-03-28T23:19:43.599Z,49.70
2019-03-28T23:22:11.356Z,52.90
2019-03-28T23:24:39.219Z,54.27
2019-03-28T23:27:07.089Z,70.80
2019-03-28T23:29:34.829Z,50.80
2019-03-28T23:32:02.564Z,50.73
2019-03-28T23:34:30.331Z,53.47
2019-03-28T23:36:58.199Z,60.67
2019-03-28T23:39:26.632Z,52.13
2019-03-28T23:41:54.396Z,59.27
2019-03-28T23:44:22.132Z,55.23
2019-03-28T23:46:49.894Z,49.10
2019-03-28T23:49:17.652Z,46.73
2019-03-28T23:51:45.402Z,44.87
2019-03-28T23:54:13.166Z,44.33
2019-03-28T23:56:40.956Z,46.90
2019-03-28T23:59:10.709Z,51.07
